1887 Cyclonic Storm NOT_NAMED (1887280N11085)


IBTrACS version v04r00. Visit IBTrACS website for data access.
Please direct all questions to the IBTrACS Q and A forum

Storm track - Intensity - Wind Radii - Intensity Data - Source Data - All data

Summary Information

Storm ID 1887280N11085
Start Oct 7 00Z
Landfall Oct 9 00Z
Max Intensity 45 kt (Oct 7 03Z)
End Oct 14 03Z
ATCF IDs
Track status Best track data.

Storm track plot

Map of storm track

Intensity plots

Map of storm track

Radial wind information

No radial wind information for this storm


Position and Intensity Table

BASIN ISO_TIME_________ NATURE LAT LON DS824 WIND
degrees north degrees east kts
NI 1887-10-07 00:00:00 TS 10.70 85.10 45
NI 03:00:00 TS 10.73 84.93 45
NI 06:00:00 TS 10.79 84.69 45
NI 09:00:00 TS 10.87 84.45 45
NI 12:00:00 TS 10.96 84.21 45
NI 15:00:00 TS 11.05 83.97 45
NI 18:00:00 TS 11.14 83.75 45
NI 21:00:00 TS 11.23 83.56 45
NI 1887-10-08 00:00:00 TS 11.34 83.34 45
NI 03:00:00 TS 11.47 83.02 45
NI 06:00:00 TS 11.61 82.63 45
NI 09:00:00 TS 11.76 82.23 45
NI 12:00:00 TS 11.91 81.81 45
NI 15:00:00 TS 12.10 81.40 41
NI 18:00:00 TS 12.28 81.03 37
NI 21:00:00 TS 12.46 80.68 33
NI 1887-10-09 00:00:00 TS 12.67 80.25 30
NI 03:00:00 TS 12.96 79.65 30
NI 06:00:00 TS 13.30 78.92 30
NI 09:00:00 TS 13.66 78.15 30
NI 12:00:00 TS 14.01 77.39 30
NI 15:00:00 TS 14.35 76.66 30
NI 18:00:00 TS 14.69 75.98 30
NI 21:00:00 TS 15.10 75.29 30
NI 1887-10-10 00:00:00 TS 15.46 74.73 30
NI 03:00:00 TS 15.67 74.39 30
NI 06:00:00 TS 15.79 74.21 30
NI 09:00:00 TS 15.93 74.09 30
NI 12:00:00 TS 16.05 74.01 30
NI 15:00:00 TS 16.18 73.95 30
NI 18:00:00 TS 16.32 73.85 30
NI 21:00:00 TS 16.47 73.78 30
NI 1887-10-11 00:00:00 TS 16.62 73.73 30
NI 03:00:00 TS 16.77 73.67 30
NI 06:00:00 TS 16.93 73.63 30
NI 09:00:00 TS 17.11 73.61 30
NI 12:00:00 TS 17.31 73.60 30
NI 15:00:00 TS 17.50 73.60 30
NI 18:00:00 TS 17.70 73.60 30
NI 21:00:00 TS 17.91 73.63 30
NI 1887-10-12 00:00:00 TS 18.11 73.68 30
NI 03:00:00 TS 18.28 73.73 30
NI 06:00:00 TS 18.43 73.77 30
NI 09:00:00 TS 18.57 73.81 30
NI 12:00:00 TS 18.72 73.87 30
NI 15:00:00 TS 18.90 73.95 30
NI 18:00:00 TS 19.05 73.99 30
NI 21:00:00 TS 19.16 73.99 30
NI 1887-10-13 00:00:00 TS 19.42 74.14 30
NI 03:00:00 TS 19.96 74.61 30
NI 06:00:00 TS 20.71 75.35 30
NI 09:00:00 TS 21.46 76.18 30
NI 12:00:00 TS 22.21 77.11 30
NI 15:00:00 TS 22.91 78.04 30
NI 18:00:00 TS 23.50 78.93 30
NI 21:00:00 TS 24.03 79.86 30
NI 1887-10-14 00:00:00 TS 24.49 80.77 30
NI 03:00:00 NR 24.80 81.40

Source Information

Agency Information
USA
TOKYO
CMA
HKO
NEWDELHI
REUNION
BOM
NADI
WELLINGTON
DS824 n_ind.dat:119:NOT NAMED
TD9636 cons_worldwide_trop_cyclone_18710101-19891231-004:Line=1191
TD9635
NEUMANN
MLC

All available IBTrACS Data

SEASON BASIN SUBBASIN ISO_TIME_________ NATURE LAT LON DIST2LAND LANDFALL IFLAG USA SSHS DS824 LAT DS824 LON DS824 STAGE DS824 WIND TD9636 LAT TD9636 LON TD9636 STAGE STORM SPEED STORM DIR
Year degrees north degrees east km km 1 degrees north degrees east kts degrees north degrees east kts degrees
1887 NI BB 1887-10-07 00:00:00 TS 10.70 85.10 480 462 _________O____ -1 10.70 85.10 TC 45 3 279
1887 NI BB 03:00:00 TS 10.73 84.93 462 450 _________PO___ -1 10.74 84.85 TC 45 10.70 85.10 3 4 283
1887 NI BB 06:00:00 TS 10.79 84.69 450 431 _________OP___ -1 10.80 84.60 TC 45 10.77 84.83 3 5 287
1887 NI BB 09:00:00 TS 10.87 84.45 428 417 _________PP___ -1 10.89 84.35 TC 45 10.85 84.57 3 5 290
1887 NI BB 12:00:00 TS 10.96 84.21 417 398 _________OP___ -1 11.00 84.10 TC 45 10.92 84.33 3 5 291
1887 NI BB 15:00:00 TS 11.05 83.97 398 385 _________PO___ -1 11.10 83.84 TC 45 11.00 84.10 3 5 292
1887 NI BB 18:00:00 TS 11.14 83.75 376 373 _________OP___ -1 11.20 83.60 TC 45 11.08 83.90 3 4 294
1887 NI BB 21:00:00 TS 11.23 83.56 373 362 _________PP___ -1 11.29 83.42 TC 45 11.18 83.69 3 5 296
1887 NI BB 1887-10-08 00:00:00 TS 11.34 83.34 353 324 _________OP___ -1 11.40 83.20 TC 45 11.28 83.47 3 6 294
1887 NI BB 03:00:00 TS 11.47 83.02 324 279 _________PO___ -1 11.54 82.83 TC 45 11.40 83.20 3 7 291
1887 NI BB 06:00:00 TS 11.61 82.63 279 235 _________OP___ -1 11.70 82.40 TC 45 11.53 82.85 3 8 290
1887 NI BB 09:00:00 TS 11.76 82.23 231 186 _________PP___ -1 11.84 82.00 TC 45 11.67 82.45 3 9 291
1887 NI BB 12:00:00 TS 11.91 81.81 186 137 _________OP___ -1 12.00 81.60 TC 45 11.83 82.03 3 9 293
1887 NI BB 15:00:00 TS 12.10 81.40 137 89 _________PO___ -1 12.19 81.20 TC 41 12.00 81.60 3 9 295
1887 NI BB 18:00:00 TS 12.28 81.03 89 55 _________OP___ -1 12.40 80.80 TC 37 12.16 81.26 3 8 297
1887 NI BB 21:00:00 TS 12.46 80.68 54 10 _________PP___ -1 12.58 80.45 TC 33 12.34 80.90 3 9 297
1887 NI BB 1887-10-09 00:00:00 TS 12.67 80.25 0 0 _________OP___ -1 12.80 80.00 TC 30 12.55 80.50 3 11 297
1887 NI BB 03:00:00 TS 12.96 79.65 0 0 _________PO___ -1 13.13 79.30 TC 30 12.80 80.00 1 14 296
1887 NI BB 06:00:00 TS 13.30 78.92 0 0 _________OP___ -1 13.50 78.50 TC 30 13.11 79.33 1 16 295
1887 NI BB 09:00:00 TS 13.66 78.15 0 0 _________PP___ -1 13.86 77.73 TC 30 13.46 78.57 1 17 296
1887 NI AS 12:00:00 TS 14.01 77.39 0 0 _________OP___ -1 14.20 77.00 TC 30 13.83 77.77 1 16 296
1887 NI AS 15:00:00 TS 14.35 76.66 0 0 _________PO___ -1 14.49 76.33 TC 30 14.20 77.00 1 15 297
1887 NI AS 18:00:00 TS 14.69 75.98 0 0 _________OP___ -1 14.80 75.70 TC 30 14.59 76.26 1 15 300
1887 NI AS 21:00:00 TS 15.10 75.29 0 0 _________PP___ -1 15.23 75.03 TC 30 14.97 75.56 1 14 302
1887 NI AS 1887-10-10 00:00:00 TS 15.46 74.73 0 0 _________OP___ -1 15.60 74.50 TC 30 15.32 74.96 1 10 303
1887 NI AS 03:00:00 TS 15.67 74.39 0 0 _________PO___ -1 15.74 74.27 TC 30 15.60 74.50 1 6 304
1887 NI AS 06:00:00 TS 15.79 74.21 0 0 _________OP___ -1 15.80 74.20 TC 30 15.78 74.22 1 4 312
1887 NI AS 09:00:00 TS 15.93 74.09 0 0 _________PP___ -1 15.94 74.09 TC 30 15.91 74.08 1 3 324
1887 NI AS 12:00:00 TS 16.05 74.01 0 0 _________OP___ -1 16.10 74.00 TC 30 16.00 74.03 1 3 331
1887 NI AS 15:00:00 TS 16.18 73.95 0 0 _________PO___ -1 16.25 73.89 TC 30 16.10 74.00 1 3 329
1887 NI AS 18:00:00 TS 16.32 73.85 0 0 _________OP___ -1 16.40 73.80 TC 30 16.24 73.90 1 3 331
1887 NI AS 21:00:00 TS 16.47 73.78 0 0 _________PP___ -1 16.55 73.74 TC 30 16.38 73.82 1 3 339
1887 NI AS 1887-10-11 00:00:00 TS 16.62 73.73 0 0 _________OP___ -1 16.70 73.70 TC 30 16.54 73.75 1 3 341
1887 NI AS 03:00:00 TS 16.77 73.67 0 0 _________PO___ -1 16.84 73.64 TC 30 16.70 73.70 1 3 343
1887 NI AS 06:00:00 TS 16.93 73.63 0 0 _________OP___ -1 17.00 73.60 TC 30 16.86 73.65 1 4 351
1887 NI AS 09:00:00 TS 17.11 73.61 0 0 _________PP___ -1 17.19 73.59 TC 30 17.03 73.62 1 4 358
1887 NI AS 12:00:00 TS 17.31 73.60 0 0 _________OP___ -1 17.40 73.60 TC 30 17.21 73.60 1 4 0
1887 NI AS 15:00:00 TS 17.50 73.60 0 0 _________PO___ -1 17.60 73.59 TC 30 17.40 73.60 1 4 1
1887 NI AS 18:00:00 TS 17.70 73.60 0 0 _________OP___ -1 17.80 73.60 TC 30 17.60 73.61 1 4 5
1887 NI AS 21:00:00 TS 17.91 73.63 0 0 _________PP___ -1 18.01 73.64 TC 30 17.81 73.63 1 4 10
1887 NI AS 1887-10-12 00:00:00 TS 18.11 73.68 0 0 _________OP___ -1 18.20 73.70 TC 30 18.01 73.66 1 4 13
1887 NI AS 03:00:00 TS 18.28 73.73 0 0 _________PO___ -1 18.36 73.75 TC 30 18.20 73.70 1 3 14
1887 NI AS 06:00:00 TS 18.43 73.77 0 0 _________OP___ -1 18.50 73.80 TC 30 18.36 73.73 1 3 16
1887 NI AS 09:00:00 TS 18.57 73.81 0 0 _________PP___ -1 18.64 73.84 TC 30 18.50 73.78 1 3 18
1887 NI AS 12:00:00 TS 18.72 73.87 0 0 _________OP___ -1 18.80 73.90 TC 30 18.64 73.83 1 4 22
1887 NI AS 15:00:00 TS 18.90 73.95 0 0 _________PO___ -1 18.99 73.99 TC 30 18.80 73.90 1 3 19
1887 NI AS 18:00:00 TS 19.05 73.99 0 0 _________OP___ -1 19.20 74.10 TC 30 18.89 73.87 1 3 10
1887 NI AS 21:00:00 TS 19.16 73.99 0 0 _________PP___ -1 19.31 74.10 TC 30 19.02 73.87 1 4 22
1887 NI AS 1887-10-13 00:00:00 TS 19.42 74.14 0 0 _________OP___ -1 19.60 74.30 TC 30 19.23 73.99 1 10 36
1887 NI AS 03:00:00 TS 19.96 74.61 0 0 _________PO___ -1 20.33 74.93 TC 30 19.60 74.30 1 17 41
1887 NI AS 06:00:00 TS 20.71 75.35 0 0 _________OP___ -1 21.20 75.80 TC 30 20.23 74.89 1 21 44
1887 NI AS 09:00:00 TS 21.46 76.18 0 0 _________PP___ -1 21.93 76.68 TC 30 21.00 75.69 1 22 48
1887 NI AS 12:00:00 TS 22.21 77.11 0 0 _________OP___ -1 22.60 77.60 TC 30 21.82 76.62 1 23 50
1887 NI BB 15:00:00 TS 22.91 78.04 0 0 _________PO___ -1 23.23 78.49 TC 30 22.60 77.60 1 21 52
1887 NI BB 18:00:00 TS 23.50 78.93 0 0 _________OP___ -1 23.80 79.40 TC 30 23.27 78.57 1 20 56
1887 NI BB 21:00:00 TS 24.03 79.86 0 0 _________PP___ -1 24.32 80.38 TC 30 23.84 79.52 1 20 59
1887 NI BB 1887-10-14 00:00:00 TS 24.49 80.77 0 0 _________OP___ -1 24.80 81.40 TC 30 24.34 80.46 1 16 61
1887 NI BB 03:00:00 NR 24.80 81.40 0 __________O___ -1 TC 24.80 81.40 1 13 61